sensor_id;sensor_type;location;lat;lon;timestamp;P1;durP1;ratioP1;P2;durP2;ratioP2
77978;SDS011;67169;50.268;8.694;2024-02-21T00:02:12;5.50;;;1.50;;
77978;SDS011;67169;50.268;8.694;2024-02-21T00:04:40;9.23;;;3.55;;
77978;SDS011;67169;50.268;8.694;2024-02-21T00:07:09;4.35;;;2.22;;
77978;SDS011;67169;50.268;8.694;2024-02-21T00:09:37;5.65;;;2.60;;
77978;SDS011;67169;50.268;8.694;2024-02-21T00:12:04;11.95;;;2.47;;
77978;SDS011;67169;50.268;8.694;2024-02-21T00:14:31;4.25;;;2.67;;
77978;SDS011;67169;50.268;8.694;2024-02-21T00:16:57;7.97;;;2.40;;
77978;SDS011;67169;50.268;8.694;2024-02-21T00:19:24;7.20;;;2.75;;
77978;SDS011;67169;50.268;8.694;2024-02-21T00:21:50;9.75;;;2.45;;
77978;SDS011;67169;50.268;8.694;2024-02-21T00:24:17;10.23;;;3.50;;
77978;SDS011;67169;50.268;8.694;2024-02-21T00:26:44;3.08;;;2.35;;
77978;SDS011;67169;50.268;8.694;2024-02-21T00:29:11;7.10;;;2.33;;
77978;SDS011;67169;50.268;8.694;2024-02-21T00:31:37;6.40;;;2.65;;
77978;SDS011;67169;50.268;8.694;2024-02-21T00:34:04;9.05;;;3.08;;
77978;SDS011;67169;50.268;8.694;2024-02-21T00:36:30;4.90;;;2.38;;
77978;SDS011;67169;50.268;8.694;2024-02-21T00:38:57;3.25;;;2.95;;
77978;SDS011;67169;50.268;8.694;2024-02-21T00:41:23;5.47;;;2.53;;
77978;SDS011;67169;50.268;8.694;2024-02-21T00:43:51;5.53;;;1.65;;
77978;SDS011;67169;50.268;8.694;2024-02-21T00:46:18;6.15;;;2.22;;
77978;SDS011;67169;50.268;8.694;2024-02-21T00:48:44;6.68;;;2.83;;
77978;SDS011;67169;50.268;8.694;2024-02-21T00:51:10;7.65;;;2.55;;
77978;SDS011;67169;50.268;8.694;2024-02-21T00:53:37;4.30;;;2.30;;
77978;SDS011;67169;50.268;8.694;2024-02-21T00:56:04;5.60;;;2.95;;
77978;SDS011;67169;50.268;8.694;2024-02-21T00:58:30;9.50;;;3.00;;
77978;SDS011;67169;50.268;8.694;2024-02-21T01:00:59;11.52;;;3.40;;
77978;SDS011;67169;50.268;8.694;2024-02-21T01:03:26;6.20;;;2.63;;
77978;SDS011;67169;50.268;8.694;2024-02-21T01:05:53;4.78;;;2.55;;
77978;SDS011;67169;50.268;8.694;2024-02-21T01:08:19;11.75;;;4.13;;
77978;SDS011;67169;50.268;8.694;2024-02-21T01:10:46;14.23;;;3.83;;
77978;SDS011;67169;50.268;8.694;2024-02-21T01:13:12;11.02;;;3.55;;
77978;SDS011;67169;50.268;8.694;2024-02-21T01:15:39;4.88;;;2.65;;
77978;SDS011;67169;50.268;8.694;2024-02-21T01:18:07;6.40;;;3.08;;
77978;SDS011;67169;50.268;8.694;2024-02-21T01:20:33;5.43;;;2.83;;
77978;SDS011;67169;50.268;8.694;2024-02-21T01:23:00;11.18;;;2.65;;
77978;SDS011;67169;50.268;8.694;2024-02-21T01:25:26;8.43;;;3.25;;
77978;SDS011;67169;50.268;8.694;2024-02-21T01:27:53;8.93;;;2.80;;
77978;SDS011;67169;50.268;8.694;2024-02-21T01:30:19;7.75;;;2.60;;
77978;SDS011;67169;50.268;8.694;2024-02-21T01:32:46;7.00;;;3.03;;
77978;SDS011;67169;50.268;8.694;2024-02-21T01:35:13;6.03;;;2.35;;
77978;SDS011;67169;50.268;8.694;2024-02-21T01:37:40;8.80;;;2.70;;
77978;SDS011;67169;50.268;8.694;2024-02-21T01:40:07;9.27;;;3.22;;
77978;SDS011;67169;50.268;8.694;2024-02-21T01:42:37;8.50;;;2.47;;
77978;SDS011;67169;50.268;8.694;2024-02-21T01:45:04;4.55;;;2.08;;
77978;SDS011;67169;50.268;8.694;2024-02-21T01:47:31;4.25;;;2.13;;
77978;SDS011;67169;50.268;8.694;2024-02-21T01:49:58;7.35;;;3.33;;
77978;SDS011;67169;50.268;8.694;2024-02-21T01:52:28;8.30;;;2.53;;
77978;SDS011;67169;50.268;8.694;2024-02-21T01:54:55;2.83;;;1.40;;
77978;SDS011;67169;50.268;8.694;2024-02-21T01:57:22;5.10;;;2.47;;
77978;SDS011;67169;50.268;8.694;2024-02-21T01:59:49;8.60;;;3.10;;
77978;SDS011;67169;50.268;8.694;2024-02-21T02:02:16;8.43;;;3.15;;
77978;SDS011;67169;50.268;8.694;2024-02-21T02:04:43;8.93;;;3.17;;
77978;SDS011;67169;50.268;8.694;2024-02-21T02:07:11;7.50;;;2.85;;
77978;SDS011;67169;50.268;8.694;2024-02-21T02:09:39;6.60;;;2.97;;
77978;SDS011;67169;50.268;8.694;2024-02-21T02:12:05;10.00;;;3.17;;
77978;SDS011;67169;50.268;8.694;2024-02-21T02:14:32;9.85;;;3.42;;
77978;SDS011;67169;50.268;8.694;2024-02-21T02:16:59;8.60;;;2.25;;
77978;SDS011;67169;50.268;8.694;2024-02-21T02:19:25;7.93;;;3.13;;
77978;SDS011;67169;50.268;8.694;2024-02-21T02:21:53;9.52;;;2.70;;
77978;SDS011;67169;50.268;8.694;2024-02-21T02:24:26;8.20;;;2.70;;
77978;SDS011;67169;50.268;8.694;2024-02-21T02:26:53;3.63;;;2.33;;
77978;SDS011;67169;50.268;8.694;2024-02-21T02:29:19;5.13;;;2.45;;
77978;SDS011;67169;50.268;8.694;2024-02-21T02:31:45;3.95;;;3.17;;
77978;SDS011;67169;50.268;8.694;2024-02-21T02:34:12;13.32;;;4.35;;
77978;SDS011;67169;50.268;8.694;2024-02-21T02:36:38;6.18;;;2.17;;
77978;SDS011;67169;50.268;8.694;2024-02-21T02:39:05;6.22;;;3.13;;
77978;SDS011;67169;50.268;8.694;2024-02-21T02:41:35;6.57;;;2.88;;
77978;SDS011;67169;50.268;8.694;2024-02-21T02:44:02;8.60;;;2.78;;
77978;SDS011;67169;50.268;8.694;2024-02-21T02:46:28;6.78;;;2.75;;
77978;SDS011;67169;50.268;8.694;2024-02-21T02:48:55;8.68;;;2.63;;
77978;SDS011;67169;50.268;8.694;2024-02-21T02:51:21;7.93;;;2.58;;
77978;SDS011;67169;50.268;8.694;2024-02-21T02:53:48;6.45;;;1.98;;
77978;SDS011;67169;50.268;8.694;2024-02-21T02:56:14;6.50;;;2.80;;
77978;SDS011;67169;50.268;8.694;2024-02-21T02:58:43;5.25;;;3.30;;
77978;SDS011;67169;50.268;8.694;2024-02-21T03:01:09;7.25;;;2.70;;
77978;SDS011;67169;50.268;8.694;2024-02-21T03:03:36;4.47;;;2.85;;
77978;SDS011;67169;50.268;8.694;2024-02-21T03:06:03;9.13;;;3.35;;
77978;SDS011;67169;50.268;8.694;2024-02-21T03:08:30;10.32;;;4.70;;
77978;SDS011;67169;50.268;8.694;2024-02-21T03:10:57;5.55;;;2.60;;
77978;SDS011;67169;50.268;8.694;2024-02-21T03:13:24;9.18;;;2.83;;
77978;SDS011;67169;50.268;8.694;2024-02-21T03:15:52;9.98;;;2.50;;
77978;SDS011;67169;50.268;8.694;2024-02-21T03:18:18;11.52;;;3.28;;
77978;SDS011;67169;50.268;8.694;2024-02-21T03:20:45;9.95;;;3.05;;
77978;SDS011;67169;50.268;8.694;2024-02-21T03:23:11;2.97;;;1.77;;
77978;SDS011;67169;50.268;8.694;2024-02-21T03:25:38;9.25;;;4.00;;
77978;SDS011;67169;50.268;8.694;2024-02-21T03:28:04;10.38;;;3.47;;
77978;SDS011;67169;50.268;8.694;2024-02-21T03:30:31;10.68;;;4.22;;
77978;SDS011;67169;50.268;8.694;2024-02-21T03:33:00;5.57;;;2.83;;
77978;SDS011;67169;50.268;8.694;2024-02-21T03:35:27;4.05;;;1.58;;
77978;SDS011;67169;50.268;8.694;2024-02-21T03:37:53;9.13;;;2.88;;
77978;SDS011;67169;50.268;8.694;2024-02-21T03:40:20;7.47;;;3.25;;
77978;SDS011;67169;50.268;8.694;2024-02-21T03:42:46;6.28;;;3.25;;
77978;SDS011;67169;50.268;8.694;2024-02-21T03:45:13;8.80;;;2.90;;
77978;SDS011;67169;50.268;8.694;2024-02-21T03:47:39;8.98;;;2.78;;
77978;SDS011;67169;50.268;8.694;2024-02-21T03:50:07;7.28;;;3.00;;
77978;SDS011;67169;50.268;8.694;2024-02-21T03:52:34;5.63;;;2.85;;
77978;SDS011;67169;50.268;8.694;2024-02-21T03:55:01;6.60;;;2.75;;
77978;SDS011;67169;50.268;8.694;2024-02-21T03:57:27;6.25;;;2.50;;
77978;SDS011;67169;50.268;8.694;2024-02-21T03:59:54;8.25;;;2.83;;
77978;SDS011;67169;50.268;8.694;2024-02-21T04:02:20;5.80;;;3.05;;
77978;SDS011;67169;50.268;8.694;2024-02-21T04:04:47;10.68;;;3.15;;
77978;SDS011;67169;50.268;8.694;2024-02-21T04:07:15;6.75;;;3.40;;
77978;SDS011;67169;50.268;8.694;2024-02-21T04:09:41;8.95;;;3.10;;
77978;SDS011;67169;50.268;8.694;2024-02-21T04:12:08;13.05;;;3.90;;
77978;SDS011;67169;50.268;8.694;2024-02-21T04:14:35;9.77;;;2.72;;
77978;SDS011;67169;50.268;8.694;2024-02-21T04:17:01;5.10;;;2.55;;
77978;SDS011;67169;50.268;8.694;2024-02-21T04:19:28;6.88;;;2.55;;
77978;SDS011;67169;50.268;8.694;2024-02-21T04:21:56;8.80;;;2.20;;
77978;SDS011;67169;50.268;8.694;2024-02-21T04:24:23;6.32;;;2.78;;
77978;SDS011;67169;50.268;8.694;2024-02-21T04:26:50;4.03;;;2.22;;
77978;SDS011;67169;50.268;8.694;2024-02-21T04:29:16;5.82;;;3.22;;
77978;SDS011;67169;50.268;8.694;2024-02-21T04:31:43;5.05;;;2.83;;
77978;SDS011;67169;50.268;8.694;2024-02-21T04:34:10;6.05;;;3.42;;
77978;SDS011;67169;50.268;8.694;2024-02-21T04:36:37;9.27;;;3.15;;
77978;SDS011;67169;50.268;8.694;2024-02-21T04:39:03;16.55;;;4.60;;
77978;SDS011;67169;50.268;8.694;2024-02-21T04:41:31;8.05;;;2.83;;
77978;SDS011;67169;50.268;8.694;2024-02-21T04:43:58;6.68;;;3.72;;
77978;SDS011;67169;50.268;8.694;2024-02-21T04:46:24;5.97;;;3.30;;
77978;SDS011;67169;50.268;8.694;2024-02-21T04:48:50;7.80;;;3.38;;
77978;SDS011;67169;50.268;8.694;2024-02-21T04:51:17;7.43;;;3.70;;
77978;SDS011;67169;50.268;8.694;2024-02-21T04:53:44;9.38;;;2.83;;
77978;SDS011;67169;50.268;8.694;2024-02-21T04:56:10;8.95;;;3.15;;
77978;SDS011;67169;50.268;8.694;2024-02-21T04:58:38;10.38;;;3.50;;
77978;SDS011;67169;50.268;8.694;2024-02-21T05:01:05;12.07;;;3.75;;
77978;SDS011;67169;50.268;8.694;2024-02-21T05:03:32;9.75;;;4.85;;
77978;SDS011;67169;50.268;8.694;2024-02-21T05:05:59;9.50;;;4.78;;
77978;SDS011;67169;50.268;8.694;2024-02-21T05:08:25;6.53;;;3.03;;
77978;SDS011;67169;50.268;8.694;2024-02-21T05:10:52;11.30;;;3.40;;
77978;SDS011;67169;50.268;8.694;2024-02-21T05:13:18;9.50;;;3.85;;
77978;SDS011;67169;50.268;8.694;2024-02-21T05:15:46;8.32;;;3.95;;
77978;SDS011;67169;50.268;8.694;2024-02-21T05:18:13;5.95;;;2.53;;
77978;SDS011;67169;50.268;8.694;2024-02-21T05:20:39;9.57;;;3.33;;
77978;SDS011;67169;50.268;8.694;2024-02-21T05:23:06;8.15;;;2.80;;
77978;SDS011;67169;50.268;8.694;2024-02-21T05:25:32;11.70;;;2.95;;
77978;SDS011;67169;50.268;8.694;2024-02-21T05:27:59;7.13;;;3.35;;
77978;SDS011;67169;50.268;8.694;2024-02-21T05:32:54;10.65;;;3.03;;
77978;SDS011;67169;50.268;8.694;2024-02-21T05:35:24;3.30;;;2.35;;
77978;SDS011;67169;50.268;8.694;2024-02-21T05:37:51;8.50;;;3.10;;
77978;SDS011;67169;50.268;8.694;2024-02-21T05:40:18;15.02;;;3.83;;
77978;SDS011;67169;50.268;8.694;2024-02-21T05:42:45;9.57;;;3.10;;
77978;SDS011;67169;50.268;8.694;2024-02-21T05:45:11;11.90;;;3.20;;
77978;SDS011;67169;50.268;8.694;2024-02-21T05:47:38;7.05;;;3.00;;
77978;SDS011;67169;50.268;8.694;2024-02-21T05:50:06;3.20;;;2.78;;
77978;SDS011;67169;50.268;8.694;2024-02-21T05:52:33;8.93;;;3.33;;
77978;SDS011;67169;50.268;8.694;2024-02-21T05:55:00;5.50;;;2.88;;
77978;SDS011;67169;50.268;8.694;2024-02-21T05:57:26;8.18;;;3.03;;
77978;SDS011;67169;50.268;8.694;2024-02-21T05:59:53;12.85;;;3.70;;
77978;SDS011;67169;50.268;8.694;2024-02-21T06:02:19;11.30;;;3.63;;
77978;SDS011;67169;50.268;8.694;2024-02-21T06:04:46;6.88;;;3.47;;
77978;SDS011;67169;50.268;8.694;2024-02-21T06:07:14;7.97;;;3.92;;
77978;SDS011;67169;50.268;8.694;2024-02-21T06:09:40;9.35;;;3.00;;
77978;SDS011;67169;50.268;8.694;2024-02-21T06:12:07;6.53;;;3.72;;
77978;SDS011;67169;50.268;8.694;2024-02-21T06:14:34;7.93;;;2.95;;
77978;SDS011;67169;50.268;8.694;2024-02-21T06:17:00;11.25;;;4.07;;
77978;SDS011;67169;50.268;8.694;2024-02-21T06:19:27;7.38;;;2.83;;
77978;SDS011;67169;50.268;8.694;2024-02-21T06:21:53;8.02;;;4.00;;
77978;SDS011;67169;50.268;8.694;2024-02-21T06:24:21;10.38;;;3.53;;
77978;SDS011;67169;50.268;8.694;2024-02-21T06:26:48;7.97;;;3.40;;
77978;SDS011;67169;50.268;8.694;2024-02-21T06:29:14;13.13;;;4.70;;
77978;SDS011;67169;50.268;8.694;2024-02-21T06:31:41;7.55;;;3.50;;
77978;SDS011;67169;50.268;8.694;2024-02-21T06:34:07;3.08;;;1.70;;
77978;SDS011;67169;50.268;8.694;2024-02-21T06:36:34;9.02;;;3.72;;
77978;SDS011;67169;50.268;8.694;2024-02-21T06:39:00;5.13;;;3.55;;
77978;SDS011;67169;50.268;8.694;2024-02-21T06:41:31;8.00;;;3.78;;
77978;SDS011;67169;50.268;8.694;2024-02-21T06:43:59;7.30;;;3.10;;
77978;SDS011;67169;50.268;8.694;2024-02-21T06:46:25;7.20;;;3.70;;
77978;SDS011;67169;50.268;8.694;2024-02-21T06:48:53;13.63;;;4.10;;
77978;SDS011;67169;50.268;8.694;2024-02-21T06:51:21;9.88;;;2.70;;
77978;SDS011;67169;50.268;8.694;2024-02-21T06:53:47;6.38;;;3.42;;
77978;SDS011;67169;50.268;8.694;2024-02-21T06:56:14;9.85;;;3.70;;
77978;SDS011;67169;50.268;8.694;2024-02-21T06:58:42;8.80;;;3.38;;
77978;SDS011;67169;50.268;8.694;2024-02-21T07:01:08;9.20;;;3.80;;
77978;SDS011;67169;50.268;8.694;2024-02-21T07:03:35;9.82;;;4.22;;
77978;SDS011;67169;50.268;8.694;2024-02-21T07:06:01;10.50;;;3.47;;
77978;SDS011;67169;50.268;8.694;2024-02-21T07:08:28;4.68;;;3.47;;
77978;SDS011;67169;50.268;8.694;2024-02-21T07:10:55;8.35;;;3.88;;
77978;SDS011;67169;50.268;8.694;2024-02-21T07:13:21;11.40;;;3.88;;
77978;SDS011;67169;50.268;8.694;2024-02-21T07:15:52;8.13;;;3.83;;
77978;SDS011;67169;50.268;8.694;2024-02-21T07:18:18;10.65;;;3.55;;
77978;SDS011;67169;50.268;8.694;2024-02-21T07:20:45;8.52;;;3.20;;
77978;SDS011;67169;50.268;8.694;2024-02-21T07:23:13;7.13;;;3.17;;
77978;SDS011;67169;50.268;8.694;2024-02-21T07:25:40;10.38;;;4.25;;
77978;SDS011;67169;50.268;8.694;2024-02-21T07:28:06;5.78;;;2.97;;
77978;SDS011;67169;50.268;8.694;2024-02-21T07:30:34;8.48;;;3.83;;
77978;SDS011;67169;50.268;8.694;2024-02-21T07:33:02;5.80;;;3.00;;
77978;SDS011;67169;50.268;8.694;2024-02-21T07:35:28;6.60;;;3.00;;
77978;SDS011;67169;50.268;8.694;2024-02-21T07:37:55;6.63;;;3.55;;
77978;SDS011;67169;50.268;8.694;2024-02-21T07:40:21;6.57;;;3.45;;
77978;SDS011;67169;50.268;8.694;2024-02-21T07:42:48;8.05;;;3.30;;
77978;SDS011;67169;50.268;8.694;2024-02-21T07:45:14;5.07;;;2.67;;
77978;SDS011;67169;50.268;8.694;2024-02-21T07:47:40;8.38;;;3.33;;
77978;SDS011;67169;50.268;8.694;2024-02-21T07:50:09;4.50;;;2.55;;
77978;SDS011;67169;50.268;8.694;2024-02-21T07:52:36;7.35;;;3.47;;
77978;SDS011;67169;50.268;8.694;2024-02-21T07:55:02;8.20;;;4.07;;
77978;SDS011;67169;50.268;8.694;2024-02-21T07:57:29;8.48;;;3.30;;
77978;SDS011;67169;50.268;8.694;2024-02-21T07:59:56;9.55;;;3.13;;
77978;SDS011;67169;50.268;8.694;2024-02-21T08:02:22;7.18;;;3.42;;
77978;SDS011;67169;50.268;8.694;2024-02-21T08:04:49;8.73;;;3.97;;
77978;SDS011;67169;50.268;8.694;2024-02-21T08:07:17;9.25;;;3.58;;
77978;SDS011;67169;50.268;8.694;2024-02-21T08:09:43;8.10;;;3.63;;
77978;SDS011;67169;50.268;8.694;2024-02-21T08:12:09;8.63;;;3.67;;
77978;SDS011;67169;50.268;8.694;2024-02-21T08:14:36;10.00;;;3.67;;
77978;SDS011;67169;50.268;8.694;2024-02-21T08:17:02;11.63;;;3.53;;
77978;SDS011;67169;50.268;8.694;2024-02-21T08:19:30;9.95;;;2.97;;
77978;SDS011;67169;50.268;8.694;2024-02-21T08:21:56;6.57;;;3.30;;
77978;SDS011;67169;50.268;8.694;2024-02-21T08:24:24;6.97;;;3.70;;
77978;SDS011;67169;50.268;8.694;2024-02-21T08:26:50;5.80;;;3.17;;
77978;SDS011;67169;50.268;8.694;2024-02-21T08:29:17;7.68;;;3.08;;
77978;SDS011;67169;50.268;8.694;2024-02-21T08:31:43;5.05;;;2.92;;
77978;SDS011;67169;50.268;8.694;2024-02-21T08:34:10;10.77;;;4.68;;
77978;SDS011;67169;50.268;8.694;2024-02-21T08:36:38;7.35;;;3.65;;
77978;SDS011;67169;50.268;8.694;2024-02-21T08:39:04;6.25;;;4.00;;
77978;SDS011;67169;50.268;8.694;2024-02-21T08:41:32;4.75;;;3.00;;
77978;SDS011;67169;50.268;8.694;2024-02-21T08:43:59;8.27;;;4.75;;
77978;SDS011;67169;50.268;8.694;2024-02-21T08:46:26;7.28;;;3.35;;
77978;SDS011;67169;50.268;8.694;2024-02-21T08:48:53;4.65;;;2.33;;
77978;SDS011;67169;50.268;8.694;2024-02-21T08:51:20;7.40;;;4.03;;
77978;SDS011;67169;50.268;8.694;2024-02-21T08:53:47;9.10;;;4.00;;
77978;SDS011;67169;50.268;8.694;2024-02-21T08:56:14;9.23;;;5.00;;
77978;SDS011;67169;50.268;8.694;2024-02-21T08:58:42;8.60;;;5.25;;
77978;SDS011;67169;50.268;8.694;2024-02-21T09:01:08;6.10;;;3.38;;
77978;SDS011;67169;50.268;8.694;2024-02-21T09:03:35;11.77;;;5.30;;
77978;SDS011;67169;50.268;8.694;2024-02-21T09:06:02;10.07;;;3.88;;
77978;SDS011;67169;50.268;8.694;2024-02-21T09:08:30;7.43;;;4.25;;
77978;SDS011;67169;50.268;8.694;2024-02-21T09:10:57;16.88;;;4.13;;
77978;SDS011;67169;50.268;8.694;2024-02-21T09:13:23;7.63;;;4.43;;
77978;SDS011;67169;50.268;8.694;2024-02-21T09:15:51;8.35;;;3.38;;
77978;SDS011;67169;50.268;8.694;2024-02-21T09:18:17;8.77;;;3.83;;
77978;SDS011;67169;50.268;8.694;2024-02-21T09:20:44;9.23;;;3.25;;
77978;SDS011;67169;50.268;8.694;2024-02-21T09:23:12;8.77;;;3.72;;
77978;SDS011;67169;50.268;8.694;2024-02-21T09:25:39;7.55;;;3.50;;
77978;SDS011;67169;50.268;8.694;2024-02-21T09:28:06;8.68;;;4.03;;
77978;SDS011;67169;50.268;8.694;2024-02-21T09:30:32;6.93;;;3.08;;
77978;SDS011;67169;50.268;8.694;2024-02-21T09:33:00;9.77;;;3.40;;
77978;SDS011;67169;50.268;8.694;2024-02-21T09:35:27;6.25;;;4.00;;
77978;SDS011;67169;50.268;8.694;2024-02-21T09:37:53;7.80;;;2.75;;
77978;SDS011;67169;50.268;8.694;2024-02-21T09:40:20;6.13;;;2.90;;
77978;SDS011;67169;50.268;8.694;2024-02-21T09:42:47;8.00;;;3.17;;
77978;SDS011;67169;50.268;8.694;2024-02-21T09:45:15;11.25;;;4.57;;
77978;SDS011;67169;50.268;8.694;2024-02-21T09:47:50;12.98;;;3.95;;
77978;SDS011;67169;50.268;8.694;2024-02-21T09:50:32;7.57;;;4.00;;
77978;SDS011;67169;50.268;8.694;2024-02-21T09:53:01;8.07;;;4.03;;
77978;SDS011;67169;50.268;8.694;2024-02-21T09:55:29;6.40;;;3.60;;
77978;SDS011;67169;50.268;8.694;2024-02-21T09:57:57;13.45;;;5.50;;
77978;SDS011;67169;50.268;8.694;2024-02-21T10:00:25;10.10;;;4.80;;
77978;SDS011;67169;50.268;8.694;2024-02-21T10:02:53;11.07;;;4.70;;
77978;SDS011;67169;50.268;8.694;2024-02-21T10:05:21;10.18;;;4.78;;
77978;SDS011;67169;50.268;8.694;2024-02-21T10:07:49;10.73;;;5.00;;
77978;SDS011;67169;50.268;8.694;2024-02-21T10:10:17;6.80;;;3.42;;
77978;SDS011;67169;50.268;8.694;2024-02-21T10:12:49;7.80;;;3.60;;
77978;SDS011;67169;50.268;8.694;2024-02-21T10:15:19;4.50;;;3.45;;
77978;SDS011;67169;50.268;8.694;2024-02-21T10:17:46;9.48;;;4.00;;
77978;SDS011;67169;50.268;8.694;2024-02-21T10:20:13;9.88;;;2.97;;
77978;SDS011;67169;50.268;8.694;2024-02-21T10:22:41;6.13;;;3.72;;
77978;SDS011;67169;50.268;8.694;2024-02-21T10:25:08;4.25;;;3.00;;
77978;SDS011;67169;50.268;8.694;2024-02-21T10:27:35;5.40;;;2.58;;
77978;SDS011;67169;50.268;8.694;2024-02-21T10:30:02;4.30;;;2.13;;
77978;SDS011;67169;50.268;8.694;2024-02-21T10:32:30;5.10;;;3.28;;
77978;SDS011;67169;50.268;8.694;2024-02-21T10:35:00;5.18;;;2.10;;
77978;SDS011;67169;50.268;8.694;2024-02-21T10:37:29;9.40;;;2.40;;
77978;SDS011;67169;50.268;8.694;2024-02-21T10:39:57;3.97;;;2.60;;
77978;SDS011;67169;50.268;8.694;2024-02-21T10:42:24;6.47;;;3.03;;
77978;SDS011;67169;50.268;8.694;2024-02-21T10:44:59;4.22;;;2.67;;
77978;SDS011;67169;50.268;8.694;2024-02-21T10:47:29;2.10;;;1.73;;
77978;SDS011;67169;50.268;8.694;2024-02-21T10:50:00;6.95;;;2.17;;
77978;SDS011;67169;50.268;8.694;2024-02-21T10:52:31;5.32;;;2.25;;
77978;SDS011;67169;50.268;8.694;2024-02-21T10:55:19;3.38;;;1.85;;
77978;SDS011;67169;50.268;8.694;2024-02-21T10:57:48;4.13;;;2.25;;
77978;SDS011;67169;50.268;8.694;2024-02-21T11:02:44;3.15;;;2.00;;
77978;SDS011;67169;50.268;8.694;2024-02-21T11:05:11;8.52;;;2.13;;
77978;SDS011;67169;50.268;8.694;2024-02-21T11:07:38;5.75;;;2.40;;
77978;SDS011;67169;50.268;8.694;2024-02-21T11:10:19;3.35;;;2.20;;
77978;SDS011;67169;50.268;8.694;2024-02-21T11:12:48;5.63;;;1.60;;
77978;SDS011;67169;50.268;8.694;2024-02-21T11:15:15;2.55;;;1.25;;
77978;SDS011;67169;50.268;8.694;2024-02-21T11:17:42;3.15;;;1.98;;
77978;SDS011;67169;50.268;8.694;2024-02-21T11:20:19;3.67;;;1.58;;
77978;SDS011;67169;50.268;8.694;2024-02-21T11:22:47;4.78;;;1.85;;
77978;SDS011;67169;50.268;8.694;2024-02-21T11:25:22;3.05;;;1.52;;
77978;SDS011;67169;50.268;8.694;2024-02-21T11:27:49;2.90;;;1.88;;
77978;SDS011;67169;50.268;8.694;2024-02-21T11:30:16;4.90;;;1.50;;
77978;SDS011;67169;50.268;8.694;2024-02-21T11:32:47;4.82;;;1.98;;
77978;SDS011;67169;50.268;8.694;2024-02-21T11:35:18;2.50;;;1.70;;
77978;SDS011;67169;50.268;8.694;2024-02-21T11:37:45;3.97;;;1.95;;
77978;SDS011;67169;50.268;8.694;2024-02-21T11:40:13;3.75;;;2.28;;
77978;SDS011;67169;50.268;8.694;2024-02-21T11:42:41;6.55;;;1.75;;
77978;SDS011;67169;50.268;8.694;2024-02-21T11:47:34;4.05;;;1.83;;
77978;SDS011;67169;50.268;8.694;2024-02-21T11:50:04;2.15;;;1.98;;
77978;SDS011;67169;50.268;8.694;2024-02-21T11:52:31;6.47;;;2.60;;
77978;SDS011;67169;50.268;8.694;2024-02-21T11:54:57;5.55;;;2.10;;
77978;SDS011;67169;50.268;8.694;2024-02-21T11:57:29;4.57;;;2.47;;
77978;SDS011;67169;50.268;8.694;2024-02-21T11:59:57;4.20;;;1.98;;
77978;SDS011;67169;50.268;8.694;2024-02-21T12:02:23;5.28;;;2.33;;
77978;SDS011;67169;50.268;8.694;2024-02-21T12:04:50;5.07;;;2.53;;
77978;SDS011;67169;50.268;8.694;2024-02-21T12:07:19;6.95;;;3.20;;
77978;SDS011;67169;50.268;8.694;2024-02-21T12:09:48;3.13;;;1.40;;
77978;SDS011;67169;50.268;8.694;2024-02-21T12:12:14;6.13;;;1.85;;
77978;SDS011;67169;50.268;8.694;2024-02-21T12:14:46;4.78;;;2.47;;
77978;SDS011;67169;50.268;8.694;2024-02-21T12:17:13;5.90;;;3.42;;
77978;SDS011;67169;50.268;8.694;2024-02-21T12:19:40;5.43;;;2.08;;
77978;SDS011;67169;50.268;8.694;2024-02-21T12:22:07;4.45;;;2.25;;
77978;SDS011;67169;50.268;8.694;2024-02-21T12:24:33;3.78;;;2.42;;
77978;SDS011;67169;50.268;8.694;2024-02-21T12:27:00;4.18;;;3.17;;
77978;SDS011;67169;50.268;8.694;2024-02-21T12:31:55;3.70;;;2.13;;
77978;SDS011;67169;50.268;8.694;2024-02-21T12:34:23;3.67;;;2.17;;
77978;SDS011;67169;50.268;8.694;2024-02-21T12:36:51;3.72;;;1.35;;
77978;SDS011;67169;50.268;8.694;2024-02-21T12:39:18;3.90;;;2.03;;
77978;SDS011;67169;50.268;8.694;2024-02-21T12:41:44;4.53;;;1.33;;
77978;SDS011;67169;50.268;8.694;2024-02-21T12:44:11;6.47;;;2.08;;
77978;SDS011;67169;50.268;8.694;2024-02-21T12:46:37;1.48;;;1.02;;
77978;SDS011;67169;50.268;8.694;2024-02-21T12:49:05;3.90;;;1.20;;
77978;SDS011;67169;50.268;8.694;2024-02-21T12:51:33;3.90;;;1.38;;
77978;SDS011;67169;50.268;8.694;2024-02-21T12:54:00;4.32;;;2.08;;
77978;SDS011;67169;50.268;8.694;2024-02-21T12:56:28;2.53;;;1.23;;
77978;SDS011;67169;50.268;8.694;2024-02-21T13:06:14;5.65;;;1.30;;
77978;SDS011;67169;50.268;8.694;2024-02-21T13:08:42;4.15;;;1.40;;
77978;SDS011;67169;50.268;8.694;2024-02-21T13:11:09;4.18;;;0.98;;
77978;SDS011;67169;50.268;8.694;2024-02-21T13:13:36;2.28;;;1.80;;
77978;SDS011;67169;50.268;8.694;2024-02-21T13:16:03;3.60;;;1.58;;
77978;SDS011;67169;50.268;8.694;2024-02-21T13:18:30;6.43;;;2.22;;
77978;SDS011;67169;50.268;8.694;2024-02-21T13:20:57;2.20;;;1.67;;
77978;SDS011;67169;50.268;8.694;2024-02-21T13:23:24;3.90;;;2.38;;
77978;SDS011;67169;50.268;8.694;2024-02-21T13:25:51;2.70;;;1.27;;
77978;SDS011;67169;50.268;8.694;2024-02-21T13:28:18;3.42;;;1.60;;
77978;SDS011;67169;50.268;8.694;2024-02-21T13:30:45;7.78;;;2.35;;
77978;SDS011;67169;50.268;8.694;2024-02-21T13:33:11;7.18;;;1.77;;
77978;SDS011;67169;50.268;8.694;2024-02-21T13:35:38;1.98;;;1.30;;
77978;SDS011;67169;50.268;8.694;2024-02-21T13:38:04;5.45;;;1.67;;
77978;SDS011;67169;50.268;8.694;2024-02-21T13:40:31;5.78;;;2.47;;
77978;SDS011;67169;50.268;8.694;2024-02-21T13:42:59;3.90;;;2.00;;
77978;SDS011;67169;50.268;8.694;2024-02-21T13:45:26;2.85;;;1.73;;
77978;SDS011;67169;50.268;8.694;2024-02-21T13:47:52;2.55;;;1.58;;
77978;SDS011;67169;50.268;8.694;2024-02-21T13:50:19;6.72;;;2.00;;
77978;SDS011;67169;50.268;8.694;2024-02-21T13:52:47;7.25;;;1.92;;
77978;SDS011;67169;50.268;8.694;2024-02-21T13:55:13;6.07;;;2.03;;
77978;SDS011;67169;50.268;8.694;2024-02-21T13:57:40;3.47;;;1.48;;
77978;SDS011;67169;50.268;8.694;2024-02-21T14:00:09;3.00;;;1.67;;
77978;SDS011;67169;50.268;8.694;2024-02-21T14:02:36;3.08;;;1.42;;
77978;SDS011;67169;50.268;8.694;2024-02-21T14:05:04;7.32;;;1.60;;
77978;SDS011;67169;50.268;8.694;2024-02-21T14:07:31;2.40;;;1.38;;
77978;SDS011;67169;50.268;8.694;2024-02-21T14:09:58;10.52;;;2.08;;
77978;SDS011;67169;50.268;8.694;2024-02-21T14:12:24;4.55;;;1.50;;
77978;SDS011;67169;50.268;8.694;2024-02-21T14:14:51;6.15;;;2.45;;
77978;SDS011;67169;50.268;8.694;2024-02-21T14:17:19;3.17;;;1.45;;
77978;SDS011;67169;50.268;8.694;2024-02-21T14:19:46;4.35;;;1.05;;
77978;SDS011;67169;50.268;8.694;2024-02-21T14:22:13;3.65;;;1.15;;
77978;SDS011;67169;50.268;8.694;2024-02-21T14:24:39;2.83;;;1.08;;
77978;SDS011;67169;50.268;8.694;2024-02-21T14:27:06;1.98;;;1.35;;
77978;SDS011;67169;50.268;8.694;2024-02-21T14:29:33;4.47;;;1.42;;
77978;SDS011;67169;50.268;8.694;2024-02-21T14:32:00;6.00;;;1.60;;
77978;SDS011;67169;50.268;8.694;2024-02-21T14:34:28;2.05;;;1.65;;
77978;SDS011;67169;50.268;8.694;2024-02-21T14:36:54;1.58;;;1.13;;
77978;SDS011;67169;50.268;8.694;2024-02-21T14:39:21;4.35;;;1.42;;
77978;SDS011;67169;50.268;8.694;2024-02-21T14:41:48;3.78;;;1.20;;
77978;SDS011;67169;50.268;8.694;2024-02-21T14:44:14;3.90;;;1.20;;
77978;SDS011;67169;50.268;8.694;2024-02-21T14:46:41;2.67;;;1.15;;
77978;SDS011;67169;50.268;8.694;2024-02-21T14:49:07;4.00;;;1.73;;
77978;SDS011;67169;50.268;8.694;2024-02-21T14:51:35;2.60;;;1.50;;
77978;SDS011;67169;50.268;8.694;2024-02-21T14:54:01;2.70;;;1.17;;
77978;SDS011;67169;50.268;8.694;2024-02-21T14:56:28;5.75;;;1.42;;
77978;SDS011;67169;50.268;8.694;2024-02-21T14:58:54;5.85;;;1.70;;
77978;SDS011;67169;50.268;8.694;2024-02-21T15:01:21;2.40;;;1.00;;
77978;SDS011;67169;50.268;8.694;2024-02-21T15:03:48;3.75;;;1.17;;